Time;durP1;ratioP1;P1;durP2;ratioP2;P2;SDS_P1;SDS_P2;PMS_P1;PMS_P2;Temp;Humidity;BMP_temperature;BMP_pressure;BME280_temperature;BME280_humidity;BME280_pressure;Samples;Min_cycle;Max_cycle;Signal;HPM_P1;HPM_P2
2023/06/06 00:01:09;;;;;;;0.98;0.73;;;;;;;16.04;100.00;101080.78;4983250;28;20685;-71
2023/06/06 00:03:35;;;;;;;1.70;1.25;;;;;;;15.38;100.00;100991.53;4986870;28;20425;-72
2023/06/06 00:06:00;;;;;;;4.18;1.00;;;;;;;15.37;100.00;100995.03;4982576;28;20034;-72
2023/06/06 00:08:28;;;;;;;0.65;0.32;;;;;;;15.44;100.00;101005.56;4979892;28;20074;-71
2023/06/06 00:10:54;;;;;;;1.70;1.13;;;;;;;15.50;100.00;101010.75;4980968;28;20967;-71
2023/06/06 00:13:21;;;;;;;2.20;0.77;;;;;;;15.90;100.00;101088.00;4982704;28;20050;-72
2023/06/06 00:15:47;;;;;;;1.73;0.82;;;;;;;15.43;100.00;101004.69;4980883;28;20501;-71
2023/06/06 00:18:13;;;;;;;2.78;1.13;;;;;;;15.81;100.00;101091.63;4980951;28;20561;-71
2023/06/06 00:20:39;;;;;;;1.83;0.88;;;;;;;15.07;100.00;100950.41;4983945;28;20046;-72
2023/06/06 00:23:06;;;;;;;1.40;0.73;;;;;;;14.77;100.00;100908.41;4976737;28;20081;-71
2023/06/06 00:25:31;;;;;;;1.95;1.00;;;;;;;15.67;100.00;101112.00;4976710;28;20491;-71
2023/06/06 00:27:57;;;;;;;1.25;0.40;;;;;;;15.05;100.00;100981.25;4983377;28;20053;-71
2023/06/06 00:30:24;;;;;;;1.23;0.65;;;;;;;15.75;100.00;101104.03;4984699;28;20026;-71
2023/06/06 00:32:49;;;;;;;1.40;0.70;;;;;;;15.79;100.00;101108.41;4979519;28;20056;-71
2023/06/06 00:35:15;;;;;;;1.55;0.63;;;;;;;15.76;100.00;101106.66;4973752;28;20054;-70
2023/06/06 00:37:40;;;;;;;0.70;0.50;;;;;;;15.25;100.00;101011.03;4981144;28;20157;-71
2023/06/06 00:40:07;;;;;;;0.85;0.65;;;;;;;14.64;100.00;100971.94;4979016;28;20096;-70
2023/06/06 00:42:32;;;;;;;2.97;0.60;;;;;;;14.56;100.00;101081.16;4981873;28;20033;-71
2023/06/06 00:44:58;;;;;;;2.45;1.55;;;;;;;14.43;100.00;101034.53;4975598;28;20035;-71
2023/06/06 00:47:23;;;;;;;1.45;0.63;;;;;;;14.46;100.00;101076.75;4979709;28;20808;-72
2023/06/06 00:49:51;;;;;;;2.45;0.95;;;;;;;13.93;100.00;100973.22;4980101;28;20076;-72
2023/06/06 00:52:17;;;;;;;2.50;0.70;;;;;;;14.68;100.00;101092.50;4977766;28;20045;-71
2023/06/06 00:54:44;;;;;;;0.77;0.50;;;;;;;14.43;100.00;101091.75;4979968;28;20073;-71
2023/06/06 00:57:10;;;;;;;1.13;0.73;;;;;;;13.50;100.00;100957.53;4962711;28;20069;-71
2023/06/06 00:59:38;;;;;;;3.35;1.35;;;;;;;14.45;100.00;101100.53;4979670;28;20050;-71
2023/06/06 01:02:09;;;;;;;4.00;1.88;;;;;;;13.88;100.00;101040.97;4977760;28;20054;-72
2023/06/06 01:04:41;;;;;;;3.97;1.73;;;;;;;14.07;100.00;101076.06;4974011;28;20058;-72
2023/06/06 01:07:09;;;;;;;2.08;1.42;;;;;;;13.61;100.00;100978.63;4982661;28;20080;-71
2023/06/06 01:09:36;;;;;;;3.40;1.38;;;;;;;13.78;100.00;101019.88;4979285;28;20038;-71
2023/06/06 01:12:23;;;;;;;2.17;1.02;;;;;;;14.26;100.00;101108.53;4979779;28;20069;-71
2023/06/06 01:15:21;;;;;;;1.45;1.10;;;;;;;14.00;100.00;101097.19;4978383;28;20129;-72
2023/06/06 01:17:49;;;;;;;1.77;1.00;;;;;;;13.45;100.00;100987.47;4968516;28;20104;-70
2023/06/06 01:20:16;;;;;;;1.60;0.85;;;;;;;12.81;100.00;100904.13;4968021;28;20054;-72
2023/06/06 01:22:46;;;;;;;2.15;1.15;;;;;;;13.61;100.00;101092.00;4962518;28;20162;-71
2023/06/06 01:25:13;;;;;;;1.67;0.80;;;;;;;13.60;100.00;101100.81;4963323;28;20050;-71
2023/06/06 01:27:39;;;;;;;2.05;0.80;;;;;;;13.04;100.00;101001.53;4985229;28;20032;-71
2023/06/06 01:30:06;;;;;;;3.80;0.73;;;;;;;13.29;100.00;101081.50;4981985;28;20050;-69
2023/06/06 01:32:50;;;;;;;1.70;0.77;;;;;;;13.40;100.00;101095.53;4980812;28;20050;-71
2023/06/06 01:35:41;;;;;;;3.25;1.58;;;;;;;12.60;100.00;100979.59;4982536;28;20054;-72
2023/06/06 01:38:12;;;;;;;2.83;1.58;;;;;;;13.18;100.00;101075.31;4982915;28;20054;-70
2023/06/06 01:40:40;;;;;;;1.70;1.08;;;;;;;12.88;100.00;101074.44;4976487;28;20053;-72
2023/06/06 01:43:08;;;;;;;1.80;1.05;;;;;;;12.43;100.00;100984.84;4977419;28;20516;-71
2023/06/06 01:45:37;;;;;;;2.55;1.13;;;;;;;12.73;100.00;101056.81;4999764;28;20042;-71
2023/06/06 01:48:03;;;;;;;2.00;0.80;;;;;;;12.22;100.00;100969.00;4977124;28;20297;-71
2023/06/06 01:50:28;;;;;;;3.40;1.08;;;;;;;12.20;100.00;100987.44;4979253;28;20042;-71
2023/06/06 01:52:55;;;;;;;1.90;0.95;;;;;;;12.74;100.00;101057.72;4977651;28;20090;-73
2023/06/06 01:55:21;;;;;;;2.13;0.98;;;;;;;12.50;100.00;101035.72;4975726;28;20113;-72
2023/06/06 01:57:46;;;;;;;1.58;0.80;;;;;;;12.83;100.00;101081.41;4979600;28;20046;-72
2023/06/06 02:00:13;;;;;;;2.35;1.42;;;;;;;12.19;100.00;100969.00;4983394;28;20042;-74
2023/06/06 02:02:38;;;;;;;4.25;1.67;;;;;;;12.49;100.00;101025.22;4974543;28;20083;-72
2023/06/06 02:05:04;;;;;;;3.15;1.10;;;;;;;11.98;100.00;100965.41;4980077;28;20059;-72
2023/06/06 02:07:30;;;;;;;2.78;1.10;;;;;;;12.63;100.00;101058.56;4978179;28;20062;-72
2023/06/06 02:09:56;;;;;;;2.58;1.30;;;;;;;12.23;100.00;100994.44;4985670;28;20054;-73
2023/06/06 02:12:22;;;;;;;5.38;1.42;;;;;;;12.06;100.00;100977.72;4982974;28;20048;-72
2023/06/06 02:14:48;;;;;;;3.45;1.08;;;;;;;12.29;100.00;100993.56;4984016;28;20422;-72
2023/06/06 02:17:14;;;;;;;1.85;0.82;;;;;;;12.65;100.00;101083.16;4979273;28;20062;-71
2023/06/06 02:19:40;;;;;;;2.30;1.20;;;;;;;11.92;100.00;100996.09;4983219;28;20438;-73
2023/06/06 02:22:06;;;;;;;2.28;1.20;;;;;;;12.46;100.00;101102.41;4984109;28;20057;-73
2023/06/06 02:24:33;;;;;;;2.72;0.93;;;;;;;12.41;100.00;101091.00;4987290;28;20046;-72
2023/06/06 02:26:58;;;;;;;4.68;2.25;;;;;;;12.65;100.00;101104.22;4989501;28;20031;-72
2023/06/06 02:29:24;;;;;;;3.83;1.02;;;;;;;12.10;100.00;100968.97;4983313;28;20054;-73
2023/06/06 02:31:51;;;;;;;3.38;0.93;;;;;;;12.75;100.00;101097.22;4979158;28;20447;-72
2023/06/06 02:34:16;;;;;;;3.97;1.58;;;;;;;12.56;100.00;101063.84;4981291;28;20046;-72
2023/06/06 02:36:42;;;;;;;1.83;0.95;;;;;;;12.52;100.00;101076.09;4987333;28;20498;-72
2023/06/06 02:39:09;;;;;;;2.58;1.63;;;;;;;11.79;100.00;100961.81;4981970;28;20493;-72
2023/06/06 02:41:35;;;;;;;1.92;1.45;;;;;;;12.06;100.00;101015.44;4985037;28;20046;-72
2023/06/06 02:44:01;;;;;;;8.88;1.52;;;;;;;12.14;100.00;101057.56;4986047;28;20038;-73
2023/06/06 02:46:27;;;;;;;3.28;1.63;;;;;;;12.11;100.00;101021.59;4983097;28;20637;-72
2023/06/06 02:48:53;;;;;;;1.92;1.08;;;;;;;12.53;100.00;101104.19;4987222;28;20054;-73
2023/06/06 02:51:22;;;;;;;2.00;1.00;;;;;;;11.35;100.00;100914.31;4980111;28;20477;-73
2023/06/06 02:53:49;;;;;;;1.92;1.10;;;;;;;11.94;100.00;100996.97;4979928;28;20527;-73
2023/06/06 02:56:16;;;;;;;2.85;1.52;;;;;;;11.79;100.00;100974.97;4977540;28;20050;-73
2023/06/06 02:58:42;;;;;;;1.83;1.00;;;;;;;11.52;100.00;100983.63;4980851;28;20832;-73
2023/06/06 03:01:12;;;;;;;3.50;1.65;;;;;;;12.28;100.00;101118.13;4985470;28;20104;-72
2023/06/06 03:03:38;;;;;;;2.83;1.23;;;;;;;12.20;100.00;101102.31;4984909;28;20066;-71
2023/06/06 03:06:03;;;;;;;2.40;1.45;;;;;;;12.17;100.00;101123.34;4986902;28;20058;-72
2023/06/06 03:08:29;;;;;;;3.22;1.30;;;;;;;12.06;100.00;101102.25;4982092;28;20050;-72
2023/06/06 03:10:55;;;;;;;3.00;1.10;;;;;;;11.46;100.00;100999.34;4981488;28;20050;-71
2023/06/06 03:13:20;;;;;;;1.55;0.95;;;;;;;11.92;100.00;101081.13;4978991;28;20440;-72
2023/06/06 03:15:46;;;;;;;2.65;1.67;;;;;;;12.03;100.00;101113.63;4985103;28;20034;-72
2023/06/06 03:18:16;;;;;;;1.77;0.90;;;;;;;11.19;100.00;100992.16;4982019;28;20038;-71
2023/06/06 03:20:45;;;;;;;3.83;1.33;;;;;;;12.05;100.00;101118.88;4981838;28;20411;-72
2023/06/06 03:23:12;;;;;;;5.78;2.55;;;;;;;11.93;100.00;101119.69;4977285;28;20138;-72
2023/06/06 03:25:43;;;;;;;2.60;1.33;;;;;;;12.19;100.00;101117.19;4981671;28;20149;-72
2023/06/06 03:28:09;;;;;;;4.78;1.48;;;;;;;12.23;100.00;101124.25;4978486;28;20110;-73
2023/06/06 03:30:35;;;;;;;2.63;1.75;;;;;;;11.62;100.00;101022.22;4975135;28;20401;-71
2023/06/06 03:33:03;;;;;;;3.60;1.40;;;;;;;11.90;100.00;101048.69;4978768;28;20034;-72
2023/06/06 03:35:32;;;;;;;1.95;1.27;;;;;;;12.40;100.00;101132.22;4986293;28;20056;-71
2023/06/06 03:37:58;;;;;;;2.58;1.25;;;;;;;11.59;100.00;101002.94;4977309;28;20054;-71
2023/06/06 03:40:23;;;;;;;3.97;2.00;;;;;;;12.42;100.00;101103.28;4977083;28;20058;-71
2023/06/06 03:42:52;;;;;;;5.25;2.03;;;;;;;12.42;100.00;101121.69;4983189;28;20038;-71
2023/06/06 03:45:18;;;;;;;2.63;1.23;;;;;;;12.51;100.00;101105.06;4979169;28;20728;-71
2023/06/06 03:47:48;;;;;;;2.55;1.15;;;;;;;12.21;100.00;101033.03;4983641;28;20240;-71
2023/06/06 03:50:13;;;;;;;5.57;2.00;;;;;;;12.65;100.00;101116.50;4978014;28;20083;-71
2023/06/06 03:52:42;;;;;;;2.80;1.50;;;;;;;12.28;100.00;101033.94;4978280;28;20050;-72
2023/06/06 03:55:11;;;;;;;5.93;2.28;;;;;;;12.76;100.00;101108.63;4981897;28;20223;-72
2023/06/06 03:57:38;;;;;;;3.30;1.98;;;;;;;12.91;100.00;101119.19;4984488;28;20768;-70
2023/06/06 04:00:16;;;;;;;6.68;1.70;;;;;;;12.53;100.00;101013.81;4981264;28;20046;-71
2023/06/06 04:02:46;;;;;;;4.43;1.50;;;;;;;12.75;100.00;101034.00;4975300;28;20070;-71
2023/06/06 04:05:12;;;;;;;4.47;1.88;;;;;;;12.94;100.00;101074.41;4983142;28;20077;-70
2023/06/06 04:07:38;;;;;;;5.82;1.40;;;;;;;12.82;100.00;101033.13;4982621;28;20403;-70
2023/06/06 04:10:05;;;;;;;3.60;1.65;;;;;;;13.30;100.00;101101.72;4982421;28;20046;-71
2023/06/06 04:12:30;;;;;;;5.22;2.80;;;;;;;13.64;100.00;101117.50;4978373;28;20570;-70
2023/06/06 04:14:56;;;;;;;4.93;2.13;;;;;;;13.16;100.00;101037.53;4980598;28;20038;-70
2023/06/06 04:17:24;;;;;;;3.97;1.83;;;;;;;13.98;100.00;101149.97;4983138;28;20066;-71
2023/06/06 04:19:50;;;;;;;1.38;0.95;;;;;;;14.09;100.00;101149.94;4979740;28;20441;-71
2023/06/06 04:22:18;;;;;;;6.97;1.55;;;;;;;14.15;100.00;101152.56;4980239;28;20054;-72
2023/06/06 04:24:44;;;;;;;2.63;1.70;;;;;;;14.19;100.00;101151.69;4976681;28;20050;-71
2023/06/06 04:27:10;;;;;;;4.05;1.88;;;;;;;14.18;100.00;101133.22;4980998;28;20038;-70
2023/06/06 04:29:35;;;;;;;5.50;1.90;;;;;;;14.39;100.00;101167.44;4977913;28;20050;-72
2023/06/06 04:32:02;;;;;;;3.45;1.60;;;;;;;14.56;100.00;101152.47;4980336;28;20108;-72
2023/06/06 04:34:31;;;;;;;4.40;1.33;;;;;;;14.69;100.00;101163.84;4981149;28;20104;-73
2023/06/06 04:37:03;;;;;;;6.28;1.80;;;;;;;14.89;100.00;101155.81;4969623;28;20046;-71
2023/06/06 04:39:29;;;;;;;4.05;2.10;;;;;;;14.93;100.00;101173.38;4975496;28;20034;-70
2023/06/06 04:41:56;;;;;;;5.65;1.95;;;;;;;15.19;100.00;101178.53;4976960;28;20050;-69
2023/06/06 04:44:23;;;;;;;3.70;1.65;;;;;;;15.36;100.00;101185.47;4973556;28;20136;-69
2023/06/06 04:46:52;;;;;;;3.72;1.90;;;;;;;14.80;100.00;101062.50;4980011;28;20065;-70
2023/06/06 04:49:21;;;;;;;3.70;1.95;;;;;;;15.57;100.00;101187.06;4978695;28;20050;-71
2023/06/06 04:51:46;;;;;;;5.93;2.50;;;;;;;15.10;100.00;101057.00;4971693;28;20058;-72
2023/06/06 04:54:13;;;;;;;3.55;1.40;;;;;;;16.01;100.00;101177.88;4979138;28;20046;-71
2023/06/06 04:56:40;;;;;;;2.45;1.35;;;;;;;15.64;100.00;101096.19;4982574;28;20057;-72
2023/06/06 04:59:05;;;;;;;1.55;0.80;;;;;;;15.99;100.00;101113.47;4985461;28;20163;-73
2023/06/06 05:01:37;;;;;;;5.07;1.75;;;;;;;15.95;100.00;101058.84;4985592;28;20038;-72
2023/06/06 05:04:03;;;;;;;2.85;1.48;;;;;;;16.33;100.00;101074.22;4985543;28;20039;-72
2023/06/06 05:06:31;;;;;;;3.38;1.42;;;;;;;17.29;100.00;101174.50;4977089;28;20034;-72
2023/06/06 05:09:04;;;;;;;2.25;0.90;;;;;;;17.87;100.00;101168.25;4983875;28;20149;-72
2023/06/06 05:11:30;;;;;;;1.83;1.35;;;;;;;18.31;100.00;101152.38;4980945;28;20054;-71
2023/06/06 05:13:56;;;;;;;3.47;1.50;;;;;;;18.25;100.00;101088.75;4981493;28;20096;-71
2023/06/06 05:16:22;;;;;;;5.50;1.23;;;;;;;18.62;100.00;101101.25;4985566;28;20046;-72
2023/06/06 05:18:47;;;;;;;2.80;1.40;;;;;;;19.09;100.00;101176.44;4980409;28;20782;-72
2023/06/06 05:21:14;;;;;;;3.50;1.20;;;;;;;18.52;100.00;101116.53;5006890;28;20058;-71
2023/06/06 05:23:40;;;;;;;3.97;1.60;;;;;;;17.85;100.00;101066.50;4984537;28;20072;-72
2023/06/06 05:26:05;;;;;;;4.18;1.48;;;;;;;18.70;100.00;101168.41;4982726;28;20439;-72
2023/06/06 05:28:31;;;;;;;7.38;1.80;;;;;;;18.54;100.00;101175.81;4979280;28;20452;-72
2023/06/06 05:30:56;;;;;;;3.35;2.00;;;;;;;18.12;100.00;101080.13;4980542;28;20077;-70
2023/06/06 05:33:25;;;;;;;3.03;1.50;;;;;;;18.20;100.00;101103.91;4980202;28;20146;-71
2023/06/06 05:35:51;;;;;;;1.77;0.70;;;;;;;18.22;100.00;101165.84;4983705;28;20057;-72
2023/06/06 05:38:18;;;;;;;2.35;1.02;;;;;;;18.21;100.00;101151.66;5003093;28;20053;-72
2023/06/06 05:40:43;;;;;;;2.67;1.58;;;;;;;18.95;100.00;101152.81;4983741;28;20062;-71
2023/06/06 05:43:09;;;;;;;3.85;1.40;;;;;;;19.25;100.00;101108.66;4985524;28;20119;-71
2023/06/06 05:45:35;;;;;;;5.40;1.60;;;;;;;20.13;100.00;101168.50;4983903;28;20038;-71
2023/06/06 05:48:00;;;;;;;2.25;1.00;;;;;;;20.48;97.97;101157.75;4982812;28;20106;-73
2023/06/06 05:50:25;;;;;;;3.83;1.70;;;;;;;19.95;94.13;101089.09;4985062;28;20101;-71
2023/06/06 05:52:51;;;;;;;3.60;1.48;;;;;;;20.13;94.24;101090.34;4983389;28;20113;-72
2023/06/06 05:55:45;;;;;;;3.88;1.90;;;;;;;21.33;88.73;101170.31;4982788;28;20053;-71
2023/06/06 05:58:11;;;;;;;4.03;1.95;;;;;;;21.27;87.60;101147.31;4962555;28;20051;-72
2023/06/06 06:00:36;;;;;;;2.53;1.77;;;;;;;21.31;84.48;101113.41;4965438;28;20045;-72
2023/06/06 06:03:03;;;;;;;2.08;1.42;;;;;;;21.18;84.73;101136.06;4964581;28;20027;-72
2023/06/06 06:05:29;;;;;;;3.75;1.50;;;;;;;20.80;88.66;101136.38;4965950;28;20078;-72
2023/06/06 06:07:59;;;;;;;2.85;0.98;;;;;;;21.17;81.30;101087.16;4975368;28;20580;-72
2023/06/06 06:10:31;;;;;;;1.63;1.05;;;;;;;21.66;79.34;101175.47;4981909;28;20446;-72
2023/06/06 06:12:57;;;;;;;1.80;1.10;;;;;;;22.22;75.10;101167.31;4985066;28;20042;-71
2023/06/06 06:15:24;;;;;;;5.25;1.27;;;;;;;22.10;73.05;101179.28;4983670;28;20125;-72
2023/06/06 06:17:50;;;;;;;5.07;1.77;;;;;;;22.12;69.64;101139.09;4977297;28;20046;-72
2023/06/06 06:20:17;;;;;;;4.00;1.50;;;;;;;20.88;78.36;101168.13;4980186;28;20054;-72
2023/06/06 06:22:43;;;;;;;2.47;1.05;;;;;;;20.95;76.48;100992.72;4982078;28;20483;-72
2023/06/06 06:25:12;;;;;;;3.03;0.88;;;;;;;22.03;75.32;101147.44;4982301;28;20137;-73
2023/06/06 06:27:39;;;;;;;2.33;1.23;;;;;;;22.27;72.52;101132.38;4981163;28;20125;-73
2023/06/06 06:30:05;;;;;;;6.72;1.42;;;;;;;22.26;74.32;101160.88;4982965;28;20042;-72
2023/06/06 06:32:36;;;;;;;2.85;1.38;;;;;;;22.34;69.80;101155.28;4978012;28;20039;-72
2023/06/06 06:35:05;;;;;;;5.07;1.30;;;;;;;22.19;68.07;101099.66;4984049;28;20050;-72
2023/06/06 06:37:31;;;;;;;3.70;1.30;;;;;;;22.48;69.04;101154.78;4980359;28;20372;-73
2023/06/06 06:39:59;;;;;;;2.88;1.63;;;;;;;22.04;67.15;101168.78;4979944;28;20061;-72
2023/06/06 06:42:25;;;;;;;3.17;1.55;;;;;;;21.71;66.39;101130.78;4977707;28;20129;-73
2023/06/06 06:44:51;;;;;;;8.48;1.50;;;;;;;22.23;66.30;101099.50;4976612;28;20054;-73
2023/06/06 06:47:17;;;;;;;2.55;1.10;;;;;;;22.39;64.46;101165.81;4970172;28;20047;-72
2023/06/06 06:49:42;;;;;;;2.10;0.85;;;;;;;21.22;64.94;101153.75;4962851;28;20059;-72
2023/06/06 06:52:11;;;;;;;2.65;0.80;;;;;;;21.87;65.60;101104.41;4983286;28;20046;-73
2023/06/06 06:54:52;;;;;;;3.33;1.02;;;;;;;22.43;62.79;101098.78;4985541;28;20060;-73
2023/06/06 06:57:19;;;;;;;6.97;1.02;;;;;;;20.98;59.56;101070.03;4989384;28;20030;-73
2023/06/06 06:59:45;;;;;;;3.70;1.95;;;;;;;21.80;61.50;101097.53;4983439;28;20053;-73
2023/06/06 07:02:11;;;;;;;1.98;0.82;;;;;;;22.71;58.66;101170.81;4981875;28;20438;-72
2023/06/06 07:04:36;;;;;;;1.98;0.82;;;;;;;22.89;56.66;101176.38;4974244;28;20055;-70
2023/06/06 07:07:03;;;;;;;1.90;1.00;;;;;;;21.06;60.95;101174.72;4981478;28;20050;-69
2023/06/06 07:09:28;;;;;;;1.85;0.95;;;;;;;21.91;60.25;101093.53;4981060;28;20372;-70
2023/06/06 07:11:54;;;;;;;0.98;0.65;;;;;;;21.34;60.75;101072.38;4975002;28;20065;-71
2023/06/06 07:14:20;;;;;;;2.28;0.98;;;;;;;21.79;60.74;101101.09;4984766;28;20411;-71
2023/06/06 07:16:48;;;;;;;2.17;1.05;;;;;;;22.06;59.35;101177.63;4987520;28;20053;-72
2023/06/06 07:19:13;;;;;;;4.43;1.40;;;;;;;22.69;60.75;101159.28;4985653;28;20046;-71
2023/06/06 07:21:39;;;;;;;1.40;0.70;;;;;;;22.29;64.98;101173.31;4987136;28;20082;-72
2023/06/06 07:24:05;;;;;;;2.03;1.05;;;;;;;22.53;65.13;101099.28;4987009;28;20120;-72
2023/06/06 07:26:30;;;;;;;5.57;1.10;;;;;;;22.93;56.99;101191.38;4984579;28;20125;-74
2023/06/06 07:28:56;;;;;;;1.08;0.68;;;;;;;22.91;56.58;101183.41;4985734;28;20232;-73
2023/06/06 07:31:21;;;;;;;3.63;1.23;;;;;;;22.38;56.20;101153.34;4983450;28;20042;-75
2023/06/06 07:33:48;;;;;;;1.65;0.90;;;;;;;23.15;55.92;101183.41;4984436;28;20041;-75
2023/06/06 07:36:13;;;;;;;1.45;0.88;;;;;;;23.47;53.45;101178.56;4985620;28;20045;-74
2023/06/06 07:38:39;;;;;;;1.52;0.90;;;;;;;22.87;51.54;101089.91;4987545;28;20054;-74
2023/06/06 07:41:04;;;;;;;2.53;1.10;;;;;;;22.38;52.16;101075.78;4978014;28;20050;-73
2023/06/06 07:43:30;;;;;;;1.55;0.88;;;;;;;22.79;52.30;101084.00;4981584;28;20495;-72
2023/06/06 07:45:56;;;;;;;2.53;1.48;;;;;;;23.09;50.85;101170.28;4983543;28;20529;-73
2023/06/06 07:48:21;;;;;;;2.30;1.05;;;;;;;23.07;52.09;101164.09;4984467;28;20037;-73
2023/06/06 07:50:47;;;;;;;2.55;1.23;;;;;;;23.06;51.18;101090.06;4985464;28;20058;-73
2023/06/06 07:53:12;;;;;;;2.50;1.13;;;;;;;23.09;50.69;101076.56;4974618;28;20471;-72
2023/06/06 07:55:37;;;;;;;2.55;1.05;;;;;;;22.31;51.37;101102.78;4986384;28;20042;-72
2023/06/06 07:58:10;;;;;;;2.58;1.10;;;;;;;21.95;51.59;101070.22;4980738;28;20046;-73
2023/06/06 08:00:36;;;;;;;2.47;1.23;;;;;;;23.30;51.39;101169.41;4983722;28;20767;-74
2023/06/06 08:03:01;;;;;;;4.13;2.45;;;;;;;22.88;50.19;101158.59;4984321;28;20464;-73
2023/06/06 08:05:28;;;;;;;6.20;3.00;;;;;;;23.51;50.52;101086.41;4980433;28;20047;-73
2023/06/06 08:07:54;;;;;;;1.20;0.50;;;;;;;23.22;48.41;101066.22;4967238;28;20090;-74
2023/06/06 08:10:20;;;;;;;2.88;0.65;;;;;;;23.49;47.98;101059.69;4979172;28;20081;-74
2023/06/06 08:12:46;;;;;;;3.10;1.85;;;;;;;24.48;47.69;101136.63;4985584;28;20037;-73
2023/06/06 08:15:12;;;;;;;2.50;1.27;;;;;;;24.31;47.08;101155.28;4983986;28;20050;-74
2023/06/06 08:17:37;;;;;;;2.65;1.25;;;;;;;23.25;48.25;101136.59;4984761;28;20082;-73
2023/06/06 08:20:07;;;;;;;3.60;1.23;;;;;;;23.82;48.14;101125.31;4985418;28;20165;-74
2023/06/06 08:22:33;;;;;;;1.80;0.98;;;;;;;23.95;46.97;100989.75;4982375;28;20050;-73
2023/06/06 08:25:04;;;;;;;2.85;1.45;;;;;;;24.67;46.87;101055.25;4983094;28;20164;-72
2023/06/06 08:27:30;;;;;;;3.53;1.23;;;;;;;25.22;46.33;101135.81;4982789;28;20038;-74
2023/06/06 08:29:56;;;;;;;2.10;0.93;;;;;;;24.77;44.64;101081.56;4983322;28;20374;-75
2023/06/06 08:32:22;;;;;;;7.15;1.75;;;;;;;25.43;44.55;101124.00;4984604;28;21375;-73
2023/06/06 08:34:48;;;;;;;4.90;1.10;;;;;;;23.47;43.23;101044.59;4978042;28;20058;-73
2023/06/06 08:37:13;;;;;;;2.58;1.08;;;;;;;25.46;43.96;101125.66;4975111;28;20723;-72
2023/06/06 08:39:40;;;;;;;2.00;1.05;;;;;;;24.93;45.53;101127.31;5014764;28;20038;-74
2023/06/06 08:42:09;;;;;;;1.63;0.85;;;;;;;24.33;43.56;101100.63;4982952;28;20031;-73
2023/06/06 08:44:34;;;;;;;1.90;0.93;;;;;;;24.96;42.82;101065.44;4984795;28;20469;-74
2023/06/06 08:47:02;;;;;;;1.33;0.57;;;;;;;25.22;41.97;101060.59;4979905;28;20086;-75
2023/06/06 08:49:30;;;;;;;1.50;0.80;;;;;;;25.81;41.36;101104.16;4979213;28;20046;-74
2023/06/06 08:51:56;;;;;;;2.33;1.50;;;;;;;24.80;42.49;101104.72;4979953;28;20550;-72
2023/06/06 08:54:22;;;;;;;2.08;1.15;;;;;;;24.98;42.49;101023.28;4982330;28;20065;-73
2023/06/06 08:56:48;;;;;;;2.25;1.00;;;;;;;25.20;42.75;101125.13;4975671;28;20042;-72
2023/06/06 08:59:14;;;;;;;1.30;0.60;;;;;;;26.00;41.62;101114.81;4982294;28;20494;-72
2023/06/06 09:01:40;;;;;;;2.22;0.90;;;;;;;26.73;40.97;101099.16;4979836;28;20458;-72
2023/06/06 09:04:07;;;;;;;2.03;1.13;;;;;;;24.95;41.56;101109.31;4978283;28;20049;-72
2023/06/06 09:06:34;;;;;;;1.67;0.68;;;;;;;25.17;42.11;101030.38;4983092;28;20121;-73
2023/06/06 09:09:01;;;;;;;1.60;0.80;;;;;;;26.88;40.11;101083.97;4981282;28;20601;-73
2023/06/06 09:11:27;;;;;;;4.82;0.75;;;;;;;25.53;40.68;101010.66;4980007;28;20133;-73
2023/06/06 09:13:52;;;;;;;1.52;0.70;;;;;;;26.11;40.87;101016.44;4979920;28;20113;-74
2023/06/06 09:16:18;;;;;;;1.73;0.82;;;;;;;27.03;40.60;101091.16;4984200;28;20081;-73
2023/06/06 09:18:48;;;;;;;3.00;0.85;;;;;;;25.65;40.31;101009.97;4980681;28;20077;-73
2023/06/06 09:21:13;;;;;;;0.77;0.50;;;;;;;27.80;39.96;101067.72;4962742;28;20046;-72
2023/06/06 09:23:39;;;;;;;2.67;1.40;;;;;;;27.49;37.63;101014.81;4980037;28;20043;-72
2023/06/06 09:26:18;;;;;;;1.98;1.17;;;;;;;27.36;38.68;101039.81;4982871;28;20050;-73
2023/06/06 09:28:44;;;;;;;2.60;1.65;;;;;;;27.74;38.96;101054.59;4980441;28;20038;-71
2023/06/06 09:31:30;;;;;;;6.25;1.10;;;;;;;26.25;39.72;100967.25;4979938;28;20061;-73
2023/06/06 09:33:59;;;;;;;2.10;1.23;;;;;;;27.10;38.59;101000.06;4979161;28;20038;-75
2023/06/06 09:36:27;;;;;;;2.58;1.25;;;;;;;26.83;41.15;100997.16;4982462;28;20085;-75
2023/06/06 09:38:55;;;;;;;2.28;0.95;;;;;;;28.60;38.98;101051.91;4982957;28;20061;-73
2023/06/06 09:41:23;;;;;;;2.28;1.05;;;;;;;26.29;40.25;101080.94;4982568;28;20049;-74
2023/06/06 09:43:49;;;;;;;3.75;1.58;;;;;;;28.02;39.06;101055.63;4978089;28;20481;-76
2023/06/06 09:46:18;;;;;;;1.90;0.98;;;;;;;27.17;37.51;100958.31;4984873;28;20089;-72
2023/06/06 09:48:58;;;;;;;3.60;1.70;;;;;;;26.58;39.36;100965.44;4978383;28;20046;-73
2023/06/06 09:51:24;;;;;;;2.75;1.25;;;;;;;26.93;39.76;100984.91;4977728;28;20387;-74
2023/06/06 09:53:51;;;;;;;4.00;1.00;;;;;;;27.44;38.33;100965.69;4982799;28;20061;-76
2023/06/06 09:56:22;;;;;;;4.00;1.55;;;;;;;27.67;38.96;101037.06;4981846;28;20034;-74
2023/06/06 09:58:55;;;;;;;3.15;1.58;;;;;;;27.72;39.41;101054.72;4984707;28;20926;-75
2023/06/06 10:01:27;;;;;;;2.00;1.23;;;;;;;27.65;38.54;100952.69;4984701;28;20671;-73
2023/06/06 10:04:03;;;;;;;2.33;1.20;;;;;;;28.26;36.99;100888.53;4962510;28;20457;-76
2023/06/06 10:06:37;;;;;;;2.97;1.17;;;;;;;28.94;37.61;101037.03;4978176;28;20030;-75
2023/06/06 10:09:05;;;;;;;3.20;1.50;;;;;;;29.16;35.62;101033.78;4979454;28;20031;-75
2023/06/06 10:11:32;;;;;;;3.05;2.00;;;;;;;27.02;37.31;100981.69;4978652;28;20043;-74
2023/06/06 10:13:59;;;;;;;2.97;1.67;;;;;;;29.40;37.20;101024.94;4981687;28;20043;-74
2023/06/06 10:16:29;;;;;;;2.97;0.73;;;;;;;28.62;35.50;100961.72;4980316;28;20047;-73
2023/06/06 10:18:57;;;;;;;4.15;2.75;;;;;;;28.82;35.79;100975.72;4977680;28;20050;-75
2023/06/06 10:21:24;;;;;;;17.67;2.00;;;;;;;29.24;35.75;101025.13;4977941;28;20810;-74
2023/06/06 10:23:50;;;;;;;3.63;1.17;;;;;;;28.47;36.28;100930.38;4979968;28;20078;-75
2023/06/06 10:26:22;;;;;;;1.90;1.15;;;;;;;27.72;36.73;100924.38;4978512;28;20054;-75
2023/06/06 10:29:07;;;;;;;2.67;1.38;;;;;;;26.97;36.20;100962.19;4982967;28;20050;-74
2023/06/06 10:31:41;;;;;;;1.92;1.13;;;;;;;27.64;35.85;101035.44;4983797;28;20046;-74
2023/06/06 10:34:16;;;;;;;3.30;1.55;;;;;;;27.94;35.14;101021.91;4981650;28;20096;-74
2023/06/06 10:36:44;;;;;;;9.52;2.00;;;;;;;27.79;35.93;100914.94;4985896;28;20026;-74
2023/06/06 10:39:19;;;;;;;1.92;1.17;;;;;;;27.64;36.23;100921.31;4987044;28;20463;-74
2023/06/06 10:41:57;;;;;;;3.83;2.28;;;;;;;29.44;34.15;101012.97;4980824;28;20086;-75
2023/06/06 10:44:32;;;;;;;2.55;1.83;;;;;;;28.13;35.73;101016.19;4987689;28;20046;-73
2023/06/06 10:47:35;;;;;;;2.58;1.10;;;;;;;28.89;36.68;101009.44;4987859;28;20061;-74
2023/06/06 10:50:21;;;;;;;2.47;1.23;;;;;;;30.00;34.93;101004.53;4986734;28;20054;-75
2023/06/06 10:52:56;;;;;;;4.80;1.20;;;;;;;27.49;36.20;100874.63;5017395;28;20422;-76
2023/06/06 10:55:30;;;;;;;3.08;1.35;;;;;;;28.09;36.06;100997.59;4977886;28;20778;-75
2023/06/06 10:58:16;;;;;;;3.42;1.30;;;;;;;27.53;36.35;101006.47;4986453;28;20050;-74
2023/06/06 11:00:47;;;;;;;8.50;1.85;;;;;;;28.29;35.73;100940.50;5002469;28;20494;-74
2023/06/06 11:03:16;;;;;;;1.80;0.85;;;;;;;29.35;35.42;100937.88;4986630;28;20035;-75
2023/06/06 11:06:01;;;;;;;8.82;2.15;;;;;;;29.67;35.18;101001.41;4987469;28;20053;-74
2023/06/06 11:08:46;;;;;;;5.10;1.70;;;;;;;28.61;37.04;100987.00;4978988;28;20781;-73
2023/06/06 11:11:15;;;;;;;3.03;1.48;;;;;;;28.58;36.94;100989.88;4979176;28;20049;-74
2023/06/06 11:13:53;;;;;;;2.63;1.63;;;;;;;29.69;35.02;100986.91;4987544;28;20065;-73
2023/06/06 11:16:37;;;;;;;6.07;4.32;;;;;;;28.74;35.53;100987.03;4983281;28;20038;-74
2023/06/06 11:19:08;;;;;;;3.78;2.50;;;;;;;27.45;36.50;100917.09;4985296;28;20050;-74
2023/06/06 11:21:41;;;;;;;2.65;2.05;;;;;;;27.92;36.13;100899.72;4985845;28;20138;-73
2023/06/06 11:24:09;;;;;;;3.58;1.45;;;;;;;28.50;36.58;100972.50;4984057;28;20396;-74
2023/06/06 11:26:39;;;;;;;3.75;1.75;;;;;;;27.95;36.71;100958.88;4985838;28;20049;-77